Time;durP1;ratioP1;P1;durP2;ratioP2;P2;SDS_P1;SDS_P2;PMS_P1;PMS_P2;Temp;Humidity;BMP_temperature;BMP_pressure;BME280_temperature;BME280_humidity;BME280_pressure;Samples;Min_cycle;Max_cycle;Signal;HPM_P1;HPM_P2
2022/07/22 00:01:23;;;;;;;6.80;4.75;;;20.00;99.90;;;;;;5055236;28;20045;-75
2022/07/22 00:03:50;;;;;;;6.50;5.30;;;20.00;99.90;;;;;;5073605;28;20055;-75
2022/07/22 00:06:18;;;;;;;7.50;4.93;;;20.00;99.90;;;;;;5073438;28;20044;-75
2022/07/22 00:08:46;;;;;;;5.40;4.65;;;20.00;99.90;;;;;;5055522;28;20052;-76
2022/07/22 00:11:13;;;;;;;9.27;5.20;;;19.90;99.90;;;;;;5055572;28;20052;-75
2022/07/22 00:13:41;;;;;;;5.55;5.05;;;19.80;99.90;;;;;;5073175;28;20048;-76
2022/07/22 00:16:08;;;;;;;5.65;5.15;;;19.80;99.90;;;;;;5072991;28;20137;-75
2022/07/22 00:18:37;;;;;;;5.75;5.15;;;19.80;99.90;;;;;;5038528;28;20134;-77
2022/07/22 00:21:05;;;;;;;5.47;4.93;;;19.70;99.90;;;;;;5073184;28;20082;-75
2022/07/22 00:23:33;;;;;;;5.43;4.93;;;19.60;99.90;;;;;;5038300;28;20048;-75
2022/07/22 00:26:00;;;;;;;5.07;4.63;;;19.60;99.90;;;;;;5055095;28;20060;-75
2022/07/22 00:28:28;;;;;;;5.80;5.30;;;19.50;99.90;;;;;;5055129;28;20532;-75
2022/07/22 00:30:56;;;;;;;7.45;5.38;;;19.50;99.90;;;;;;5055110;28;20079;-76
2022/07/22 00:33:24;;;;;;;7.45;5.80;;;19.40;99.90;;;;;;5038432;28;20528;-75
2022/07/22 00:35:53;;;;;;;6.22;5.50;;;19.40;99.90;;;;;;5072843;28;20098;-76
2022/07/22 00:38:20;;;;;;;9.35;6.07;;;19.40;99.90;;;;;;5072950;28;20102;-75
2022/07/22 00:40:48;;;;;;;8.02;5.65;;;19.30;99.90;;;;;;5054841;28;20049;-75
2022/07/22 00:43:15;;;;;;;8.48;6.28;;;19.30;99.90;;;;;;5038109;28;20122;-75
2022/07/22 00:45:43;;;;;;;9.95;7.05;;;19.30;99.90;;;;;;5037623;28;20048;-75
2022/07/22 00:48:11;;;;;;;10.00;6.70;;;19.20;99.90;;;;;;5072547;28;20148;-75
2022/07/22 00:50:39;;;;;;;8.32;7.40;;;19.20;99.90;;;;;;5054922;28;20040;-75
2022/07/22 00:53:08;;;;;;;13.93;8.25;;;19.20;99.90;;;;;;5054645;28;20052;-75
2022/07/22 00:55:37;;;;;;;12.45;8.18;;;19.10;99.90;;;;;;5072569;28;20053;-75
2022/07/22 00:58:05;;;;;;;13.98;8.10;;;19.10;99.90;;;;;;5072348;28;20366;-75
2022/07/22 01:00:33;;;;;;;17.42;8.93;;;19.10;99.90;;;;;;5072387;28;20082;-75
2022/07/22 01:03:01;;;;;;;18.13;9.48;;;19.00;99.90;;;;;;5037609;28;20052;-74
2022/07/22 01:05:28;;;;;;;19.92;11.70;;;19.00;99.90;;;;;;5072483;28;20045;-74
2022/07/22 01:07:56;;;;;;;20.50;9.95;;;19.00;99.90;;;;;;5053976;28;20059;-75
2022/07/22 01:10:25;;;;;;;13.80;9.75;;;18.90;99.90;;;;;;5037689;28;20111;-75
2022/07/22 01:12:53;;;;;;;14.02;10.10;;;18.90;99.90;;;;;;5054159;28;20079;-75
2022/07/22 01:15:21;;;;;;;20.88;11.00;;;18.90;99.90;;;;;;5072382;28;20113;-74
2022/07/22 01:17:49;;;;;;;21.40;10.10;;;18.80;99.90;;;;;;5037457;28;20045;-74
2022/07/22 01:20:18;;;;;;;16.50;10.68;;;18.80;99.90;;;;;;5054016;28;20504;-76
2022/07/22 01:22:45;;;;;;;22.83;10.98;;;18.80;99.90;;;;;;5071611;28;20048;-75
2022/07/22 01:25:13;;;;;;;23.50;10.63;;;18.80;99.90;;;;;;5054243;28;20044;-75
2022/07/22 01:27:40;;;;;;;23.15;11.05;;;18.70;99.90;;;;;;5053813;28;20057;-76
2022/07/22 01:30:09;;;;;;;26.05;11.80;;;18.70;99.90;;;;;;5054067;28;20538;-75
2022/07/22 01:32:37;;;;;;;23.92;11.48;;;18.70;99.90;;;;;;5053931;28;20479;-76
2022/07/22 01:35:07;;;;;;;27.95;11.18;;;18.70;99.90;;;;;;5054211;28;20048;-74
2022/07/22 01:37:36;;;;;;;21.23;11.77;;;18.70;99.90;;;;;;5037172;28;20048;-75
2022/07/22 01:40:05;;;;;;;21.85;12.10;;;18.70;99.90;;;;;;5054263;28;20110;-75
2022/07/22 01:42:33;;;;;;;18.27;11.15;;;18.60;99.90;;;;;;5036864;28;20463;-75
2022/07/22 01:45:00;;;;;;;22.35;12.27;;;18.60;99.90;;;;;;5053668;28;20098;-75
2022/07/22 01:47:30;;;;;;;25.02;12.20;;;18.60;99.90;;;;;;5053984;28;20110;-75
2022/07/22 01:49:58;;;;;;;20.80;11.35;;;18.60;99.90;;;;;;5053426;28;20152;-76
2022/07/22 01:52:26;;;;;;;17.58;12.02;;;18.60;99.90;;;;;;5053712;28;20181;-75
2022/07/22 01:54:54;;;;;;;20.50;12.10;;;18.60;99.90;;;;;;5037223;28;20044;-75
2022/07/22 01:57:22;;;;;;;20.25;12.85;;;18.60;99.90;;;;;;5070739;28;20040;-75
2022/07/22 01:59:52;;;;;;;22.75;11.63;;;18.60;99.90;;;;;;5054087;28;20063;-75
2022/07/22 02:02:20;;;;;;;20.95;12.35;;;18.50;99.90;;;;;;5053180;28;20043;-75
2022/07/22 02:04:48;;;;;;;20.05;11.85;;;18.60;99.90;;;;;;5053426;28;20055;-75
2022/07/22 02:07:15;;;;;;;20.45;13.25;;;18.50;99.90;;;;;;5070873;28;20056;-75
2022/07/22 02:09:43;;;;;;;20.73;12.38;;;18.60;99.90;;;;;;5053396;28;20044;-76
2022/07/22 02:12:12;;;;;;;19.23;13.82;;;18.50;99.90;;;;;;5036430;28;20048;-76
2022/07/22 02:14:45;;;;;;;21.65;13.15;;;18.50;99.90;;;;;;5052816;28;20566;-75
2022/07/22 02:17:13;;;;;;;23.25;14.50;;;18.50;99.90;;;;;;5051470;28;20048;-75
2022/07/22 02:19:41;;;;;;;25.40;13.18;;;18.50;99.90;;;;;;5036204;28;20424;-75
2022/07/22 02:22:09;;;;;;;22.88;13.90;;;18.50;99.90;;;;;;5052539;28;20046;-75
2022/07/22 02:24:36;;;;;;;25.60;15.05;;;18.50;99.90;;;;;;5036605;28;20051;-76
2022/07/22 02:27:04;;;;;;;25.10;14.32;;;18.50;99.90;;;;;;5052475;28;20049;-76
2022/07/22 02:29:34;;;;;;;31.05;16.83;;;18.50;99.90;;;;;;5052912;28;20044;-76
2022/07/22 02:32:01;;;;;;;23.75;14.38;;;18.50;99.90;;;;;;5070587;28;20075;-76
2022/07/22 02:34:29;;;;;;;22.05;14.00;;;18.50;99.90;;;;;;5071248;28;20053;-76
2022/07/22 02:36:56;;;;;;;22.15;14.20;;;18.50;99.90;;;;;;5052822;28;20049;-75
2022/07/22 02:39:24;;;;;;;22.23;13.95;;;18.50;99.90;;;;;;5053168;28;20048;-75
2022/07/22 02:41:51;;;;;;;25.85;14.68;;;18.50;99.90;;;;;;5070364;28;20052;-75
2022/07/22 02:44:19;;;;;;;26.77;15.07;;;18.50;99.90;;;;;;5053133;28;20139;-75
2022/07/22 02:46:48;;;;;;;23.85;14.57;;;18.50;99.90;;;;;;5052712;28;20049;-76
2022/07/22 02:49:21;;;;;;;23.75;15.43;;;18.50;99.90;;;;;;5052908;28;20064;-76
2022/07/22 02:51:49;;;;;;;31.08;13.45;;;18.50;99.90;;;;;;5035804;28;20045;-76
2022/07/22 02:54:17;;;;;;;29.27;13.60;;;18.60;99.90;;;;;;5052270;28;20048;-76
2022/07/22 02:56:44;;;;;;;28.73;12.95;;;18.70;99.90;;;;;;5070653;28;20051;-76
2022/07/22 02:59:12;;;;;;;29.60;13.07;;;18.80;99.90;;;;;;5070737;28;20685;-76
2022/07/22 03:01:39;;;;;;;25.08;12.65;;;18.80;99.90;;;;;;5070315;28;20045;-76
2022/07/22 03:04:08;;;;;;;24.52;12.70;;;18.90;99.90;;;;;;5052039;28;20061;-76
2022/07/22 03:06:38;;;;;;;22.02;12.68;;;19.00;99.90;;;;;;5052693;28;20131;-76
2022/07/22 03:09:25;;;;;;;27.38;12.80;;;19.10;99.90;;;;;;5055282;28;20449;-76
2022/07/22 03:11:52;;;;;;;24.25;12.90;;;19.10;99.90;;;;;;5056383;28;20044;-76
2022/07/22 03:14:21;;;;;;;33.33;13.35;;;19.20;99.90;;;;;;5039885;28;20090;-76
2022/07/22 03:16:49;;;;;;;24.80;13.00;;;19.20;99.90;;;;;;5056564;28;20114;-76
2022/07/22 03:19:18;;;;;;;23.38;12.65;;;19.30;99.90;;;;;;5039258;28;20109;-76
2022/07/22 03:21:57;;;;;;;23.45;11.48;;;19.40;99.90;;;;;;5056637;28;20056;-76
2022/07/22 03:24:25;;;;;;;16.80;12.07;;;19.40;99.90;;;;;;5040579;28;20049;-76
2022/07/22 03:26:52;;;;;;;20.20;11.90;;;19.50;99.90;;;;;;5074136;28;20063;-76
2022/07/22 03:29:20;;;;;;;23.67;13.57;;;19.50;99.90;;;;;;5056866;28;20521;-76
2022/07/22 03:31:47;;;;;;;21.17;12.57;;;19.60;99.90;;;;;;5056171;28;20052;-76
2022/07/22 03:34:17;;;;;;;25.90;12.50;;;19.60;99.90;;;;;;5056083;28;20049;-76
2022/07/22 03:36:54;;;;;;;25.48;13.55;;;19.70;99.90;;;;;;5056155;28;20056;-76
2022/07/22 03:39:21;;;;;;;21.75;13.10;;;19.70;99.90;;;;;;5056321;28;20056;-76
2022/07/22 03:41:50;;;;;;;30.77;13.40;;;19.70;99.90;;;;;;5039193;28;20154;-76
2022/07/22 03:44:17;;;;;;;55.08;16.60;;;19.80;99.90;;;;;;5056175;28;20143;-76
2022/07/22 03:46:45;;;;;;;38.83;15.27;;;19.80;99.90;;;;;;5056102;28;20139;-75
2022/07/22 03:49:14;;;;;;;38.45;13.52;;;19.90;99.90;;;;;;5055796;28;20098;-76
2022/07/22 03:51:43;;;;;;;36.55;13.50;;;20.00;99.90;;;;;;5055916;28;20127;-75
2022/07/22 03:54:11;;;;;;;35.92;14.48;;;20.00;99.90;;;;;;5056009;28;20413;-76
2022/07/22 03:56:42;;;;;;;44.83;15.18;;;20.10;99.90;;;;;;5055565;28;20065;-75
2022/07/22 03:59:09;;;;;;;51.67;14.52;;;20.10;99.90;;;;;;5039141;28;20044;-75
2022/07/22 04:01:44;;;;;;;53.97;15.00;;;20.20;99.90;;;;;;5055779;28;20056;-75
2022/07/22 04:04:12;;;;;;;31.92;12.63;;;20.30;99.90;;;;;;5055856;28;20053;-76
2022/07/22 04:06:45;;;;;;;38.42;13.73;;;20.40;99.90;;;;;;5039561;28;20142;-76
2022/07/22 04:09:23;;;;;;;34.35;11.65;;;20.50;99.90;;;;;;5057107;28;20473;-75
2022/07/22 04:11:52;;;;;;;35.65;12.57;;;20.60;99.90;;;;;;5056658;28;20410;-76
2022/07/22 04:14:21;;;;;;;38.00;14.48;;;20.70;99.90;;;;;;5055941;28;20048;-76
2022/07/22 04:16:48;;;;;;;32.90;16.23;;;20.70;99.90;;;;;;5056904;28;20113;-76
2022/07/22 04:19:16;;;;;;;41.33;17.95;;;20.80;99.90;;;;;;5054971;28;20098;-76
2022/07/22 04:21:54;;;;;;;41.17;18.15;;;20.90;99.90;;;;;;5072661;28;20520;-75
2022/07/22 04:24:24;;;;;;;27.10;13.52;;;21.00;99.90;;;;;;5055291;28;20538;-76
2022/07/22 04:26:52;;;;;;;20.48;10.80;;;21.00;99.90;;;;;;5055102;28;20064;-76
2022/07/22 04:29:20;;;;;;;22.38;11.88;;;21.20;99.90;;;;;;5073192;28;20091;-75
2022/07/22 04:31:47;;;;;;;19.95;10.15;;;21.30;99.90;;;;;;5055260;28;20139;-75
2022/07/22 04:34:18;;;;;;;20.30;10.25;;;21.30;99.90;;;;;;5055501;28;20098;-76
2022/07/22 04:36:48;;;;;;;15.52;10.55;;;21.40;99.90;;;;;;5055047;28;20057;-76
2022/07/22 04:39:17;;;;;;;17.73;8.90;;;21.50;99.90;;;;;;5055111;28;20040;-76
2022/07/22 04:41:51;;;;;;;18.00;10.63;;;21.60;99.90;;;;;;5055186;28;20055;-76
2022/07/22 04:44:20;;;;;;;17.85;10.40;;;21.70;99.90;;;;;;5055122;28;20098;-76
2022/07/22 04:46:48;;;;;;;13.25;6.68;;;21.80;99.90;;;;;;5054831;28;20067;-75
2022/07/22 04:49:15;;;;;;;12.23;6.85;;;21.90;99.90;;;;;;5054620;28;20058;-75
2022/07/22 04:51:43;;;;;;;12.85;8.02;;;21.90;99.90;;;;;;5054903;28;20131;-77
2022/07/22 04:54:17;;;;;;;12.35;6.60;;;22.00;99.90;;;;;;5054469;28;20045;-76
2022/07/22 04:56:46;;;;;;;11.98;7.47;;;22.20;99.90;;;;;;5054595;28;20063;-76
2022/07/22 04:59:14;;;;;;;13.82;7.15;;;22.30;99.90;;;;;;5054234;28;20068;-76
2022/07/22 05:01:42;;;;;;;10.95;7.03;;;22.40;99.90;;;;;;5054452;28;20532;-76
2022/07/22 05:04:10;;;;;;;11.98;7.07;;;22.50;99.90;;;;;;5037261;28;20058;-76
2022/07/22 05:06:40;;;;;;;14.85;7.65;;;22.60;99.90;;;;;;5054269;28;20036;-76
2022/07/22 05:09:08;;;;;;;15.30;6.97;;;22.70;99.90;;;;;;5053849;28;20063;-76
2022/07/22 05:11:36;;;;;;;15.05;7.90;;;22.70;99.90;;;;;;5072102;28;20516;-75
2022/07/22 05:14:05;;;;;;;11.77;6.40;;;22.80;99.90;;;;;;5053827;28;20048;-76
2022/07/22 05:16:33;;;;;;;11.98;6.97;;;22.90;99.90;;;;;;5053861;28;20064;-75
2022/07/22 05:19:00;;;;;;;10.55;6.50;;;23.00;99.90;;;;;;5053765;28;20424;-76
2022/07/22 05:21:28;;;;;;;11.18;6.63;;;23.00;99.90;;;;;;5054084;28;20048;-77
2022/07/22 05:23:56;;;;;;;12.80;6.75;;;23.10;99.90;;;;;;5072199;28;20489;-76
2022/07/22 05:26:24;;;;;;;18.95;6.53;;;23.20;99.90;;;;;;5053757;28;20072;-75
2022/07/22 05:28:53;;;;;;;9.70;6.38;;;23.30;99.90;;;;;;5037441;28;20053;-76
2022/07/22 05:31:21;;;;;;;10.70;7.03;;;23.40;99.90;;;;;;5072170;28;20055;-75
2022/07/22 05:33:48;;;;;;;15.85;6.68;;;23.50;99.90;;;;;;5054040;28;20060;-75
2022/07/22 05:36:28;;;;;;;10.60;6.38;;;23.70;99.90;;;;;;5053819;28;20189;-75
2022/07/22 05:38:57;;;;;;;13.88;6.50;;;23.80;99.90;;;;;;5053910;28;20135;-76
2022/07/22 05:41:24;;;;;;;14.18;6.93;;;24.00;99.90;;;;;;5036966;28;20087;-75
2022/07/22 05:43:54;;;;;;;13.65;6.35;;;24.30;99.90;;;;;;5053418;28;20053;-77
2022/07/22 05:46:22;;;;;;;10.68;7.30;;;24.60;99.90;;;;;;5053885;28;20048;-76
2022/07/22 05:48:49;;;;;;;10.32;6.72;;;24.90;99.90;;;;;;5036668;28;20141;-75
2022/07/22 05:51:17;;;;;;;12.60;7.00;;;25.30;99.90;;;;;;5036891;28;20056;-77
2022/07/22 05:53:46;;;;;;;15.50;8.73;;;25.70;99.90;;;;;;5053820;28;20048;-76
2022/07/22 05:56:14;;;;;;;17.98;7.78;;;26.00;99.90;;;;;;5053157;28;20080;-75
2022/07/22 05:58:42;;;;;;;17.15;8.15;;;26.50;99.90;;;;;;5036044;28;20139;-77
2022/07/22 06:01:14;;;;;;;13.13;7.93;;;27.00;99.90;;;;;;5053016;28;20056;-75
2022/07/22 06:03:42;;;;;;;15.18;7.18;;;27.50;99.90;;;;;;5036162;28;20424;-76
2022/07/22 06:06:12;;;;;;;19.67;9.80;;;28.00;99.90;;;;;;5053325;28;20132;-76
2022/07/22 06:08:39;;;;;;;21.63;9.48;;;28.60;99.90;;;;;;5052832;28;20048;-75
2022/07/22 06:11:08;;;;;;;19.52;8.52;;;28.90;97.50;;;;;;5053411;28;20048;-76
2022/07/22 06:13:36;;;;;;;18.48;9.00;;;29.20;97.10;;;;;;5052601;28;20056;-76
2022/07/22 06:16:04;;;;;;;14.00;8.93;;;29.60;94.50;;;;;;5070897;28;20080;-76
2022/07/22 06:18:34;;;;;;;15.68;9.57;;;30.00;94.20;;;;;;5052530;28;20040;-76
2022/07/22 06:21:01;;;;;;;15.68;9.35;;;30.40;88.60;;;;;;5052868;28;20048;-75
2022/07/22 06:23:29;;;;;;;14.40;9.57;;;30.40;86.10;;;;;;5070953;28;20455;-77
2022/07/22 06:25:58;;;;;;;15.13;9.02;;;30.50;86.20;;;;;;5070502;28;20052;-76
2022/07/22 06:28:30;;;;;;;21.13;9.80;;;30.80;84.90;;;;;;5052698;28;20052;-76
2022/07/22 06:30:58;;;;;;;26.80;10.88;;;31.10;83.00;;;;;;5066753;28;20049;-75
2022/07/22 06:33:26;;;;;;;19.35;10.07;;;31.50;78.60;;;;;;5069350;28;20136;-75
2022/07/22 06:35:55;;;;;;;19.13;10.35;;;31.70;76.80;;;;;;5052582;28;20157;-76
2022/07/22 06:38:23;;;;;;;16.95;10.10;;;32.00;76.20;;;;;;5069652;28;20501;-76
2022/07/22 06:41:11;;;;;;;21.38;10.80;;;32.20;76.90;;;;;;5002410;28;20041;-75
2022/07/22 06:43:56;;;;;;;17.17;11.38;;;32.30;74.70;;;;;;5069305;28;20463;-76
2022/07/22 06:46:42;;;;;;;22.08;11.00;;;32.50;71.60;;;;;;5053085;28;20429;-77
2022/07/22 06:49:11;;;;;;;16.92;10.52;;;32.90;70.50;;;;;;5070161;28;20059;-77
2022/07/22 06:51:40;;;;;;;24.77;12.23;;;33.10;68.80;;;;;;5071071;28;20048;-76
2022/07/22 06:54:07;;;;;;;12.73;11.05;;;33.20;68.70;;;;;;5090196;28;20484;-78
2022/07/22 06:56:35;;;;;;;16.30;11.93;;;33.30;66.30;;;;;;5080840;28;20144;-77
2022/07/22 06:59:03;;;;;;;16.30;11.88;;;33.60;66.20;;;;;;5037932;28;20155;-78
2022/07/22 07:01:30;;;;;;;17.30;11.65;;;33.80;63.70;;;;;;5059837;28;20040;-80
2022/07/22 07:04:01;;;;;;;19.45;11.88;;;33.70;64.60;;;;;;5046654;28;20053;-79
2022/07/22 07:06:30;;;;;;;14.32;12.13;;;34.20;62.30;;;;;;5063792;28;20045;-79
2022/07/22 07:09:16;;;;;;;18.63;10.75;;;34.50;61.30;;;;;;5069739;28;20048;-80
2022/07/22 07:11:50;;;;;;;19.02;12.25;;;34.60;61.50;;;;;;5072656;28;20491;-78
2022/07/22 07:14:37;;;;;;;14.85;11.73;;;34.90;62.10;;;;;;5091014;28;20051;-79
2022/07/22 07:17:05;;;;;;;13.82;12.18;;;34.90;60.60;;;;;;5072059;28;20529;-78
2022/07/22 07:19:33;;;;;;;17.05;11.85;;;34.90;61.20;;;;;;5083377;28;20044;-78
2022/07/22 07:22:00;;;;;;;13.27;10.93;;;34.90;60.00;;;;;;5082218;28;20131;-79
2022/07/22 07:24:29;;;;;;;14.80;11.27;;;35.00;61.10;;;;;;5083008;28;20053;-79
2022/07/22 07:26:57;;;;;;;17.60;11.82;;;35.10;60.70;;;;;;5064558;28;20430;-80
2022/07/22 07:29:26;;;;;;;12.23;10.88;;;35.40;61.00;;;;;;5065301;28;20056;-80
2022/07/22 07:31:55;;;;;;;15.80;11.18;;;35.70;59.60;;;;;;5078395;28;20045;-83
2022/07/22 07:34:23;;;;;;;13.55;11.02;;;36.10;59.30;;;;;;5079637;28;20044;-82
2022/07/22 07:36:50;;;;;;;18.08;10.85;;;36.40;57.20;;;;;;5062100;28;20044;-81
2022/07/22 07:39:18;;;;;;;15.18;11.15;;;36.70;57.50;;;;;;5060845;28;20041;-81
2022/07/22 07:41:47;;;;;;;12.77;10.73;;;36.80;56.20;;;;;;5061173;28;20040;-83
2022/07/22 07:44:16;;;;;;;13.10;11.00;;;36.90;56.20;;;;;;5060442;28;20599;-82
2022/07/22 07:46:44;;;;;;;13.60;10.90;;;36.90;55.60;;;;;;5063916;28;20072;-82
2022/07/22 07:49:12;;;;;;;12.27;10.23;;;37.00;55.20;;;;;;5061664;28;20526;-83
2022/07/22 07:51:39;;;;;;;14.93;10.43;;;37.20;54.30;;;;;;5061051;28;20559;-81
2022/07/22 07:54:07;;;;;;;11.45;10.50;;;37.30;53.90;;;;;;5061800;28;20047;-82
2022/07/22 07:56:34;;;;;;;12.30;10.80;;;37.40;53.90;;;;;;5066095;28;20047;-83
2022/07/22 07:59:03;;;;;;;12.65;11.48;;;37.70;52.70;;;;;;5083911;28;20048;-83
2022/07/22 08:01:31;;;;;;;13.75;10.13;;;38.00;53.60;;;;;;5064023;28;20040;-82
2022/07/22 08:03:59;;;;;;;12.40;10.35;;;38.10;53.50;;;;;;5064207;28;20094;-82
2022/07/22 08:06:26;;;;;;;13.45;10.45;;;38.20;54.20;;;;;;5064499;28;20051;-82
2022/07/22 08:08:54;;;;;;;13.25;11.10;;;38.10;53.50;;;;;;5066272;28;20101;-83
2022/07/22 08:11:31;;;;;;;14.90;10.75;;;38.20;52.70;;;;;;5068417;28;20048;-82
2022/07/22 08:14:26;;;;;;;13.15;11.60;;;38.30;52.30;;;;;;5065161;28;20048;-83
2022/07/22 08:17:15;;;;;;;12.68;11.43;;;38.60;51.60;;;;;;5085033;28;20054;-82
2022/07/22 08:19:43;;;;;;;12.27;11.07;;;38.80;50.10;;;;;;5065129;28;20531;-83
2022/07/22 08:22:10;;;;;;;11.48;10.43;;;39.00;50.00;;;;;;5063996;28;20040;-83
2022/07/22 08:24:40;;;;;;;12.20;10.68;;;39.20;51.40;;;;;;5064763;28;20043;-82
2022/07/22 08:27:12;;;;;;;14.30;11.15;;;39.30;51.40;;;;;;5065071;28;20048;-83
2022/07/22 08:29:41;;;;;;;11.95;10.77;;;39.40;50.00;;;;;;5063921;28;20131;-82
2022/07/22 08:32:09;;;;;;;19.40;11.13;;;39.30;49.50;;;;;;5081909;28;20040;-82
2022/07/22 08:34:36;;;;;;;11.75;10.52;;;39.30;49.80;;;;;;5064797;28;20396;-83
2022/07/22 08:37:05;;;;;;;13.07;11.32;;;39.30;49.90;;;;;;5065045;28;20045;-83
2022/07/22 08:39:34;;;;;;;11.93;10.80;;;39.50;48.20;;;;;;5049249;28;20044;-84
2022/07/22 08:42:02;;;;;;;12.25;11.05;;;39.40;49.90;;;;;;5061854;28;20059;-83
2022/07/22 08:44:31;;;;;;;14.55;10.10;;;39.30;49.20;;;;;;5067914;28;20040;-84
2022/07/22 08:47:01;;;;;;;12.25;10.75;;;39.40;48.80;;;;;;5067443;28;20063;-84
2022/07/22 08:49:55;;;;;;;14.85;10.60;;;39.50;47.90;;;;;;5052675;28;20062;-84
2022/07/22 08:52:51;;;;;;;13.60;12.48;;;39.60;47.90;;;;;;4993577;28;20066;-85
2022/07/22 08:55:19;;;;;;;14.75;10.60;;;39.70;49.20;;;;;;5048877;28;20037;-84
2022/07/22 08:57:47;;;;;;;15.25;11.57;;;39.80;49.00;;;;;;5063775;28;20134;-84
2022/07/22 09:00:17;;;;;;;14.60;10.73;;;40.00;49.10;;;;;;5049771;28;20055;-86
2022/07/22 09:02:47;;;;;;;12.63;11.45;;;40.10;48.90;;;;;;5069618;28;20454;-85
2022/07/22 09:05:18;;;;;;;12.57;11.15;;;40.40;48.00;;;;;;5086262;28;20094;-83
2022/07/22 09:07:47;;;;;;;14.60;10.88;;;40.60;48.10;;;;;;5071400;28;20103;-86
2022/07/22 09:10:33;;;;;;;11.95;10.80;;;40.70;48.50;;;;;;5074594;28;20045;-86
2022/07/22 09:13:36;;;;;;;12.52;10.88;;;40.90;48.00;;;;;;5036779;28;20045;-83
2022/07/22 09:16:40;;;;;;;13.73;10.25;;;40.90;47.90;;;;;;5054764;28;20048;-82
2022/07/22 09:19:33;;;;;;;12.07;11.00;;;41.10;48.50;;;;;;5063478;28;20048;-81
2022/07/22 09:22:32;;;;;;;12.07;10.90;;;41.20;47.20;;;;;;5085058;28;20050;-83
2022/07/22 09:25:29;;;;;;;12.00;10.90;;;41.30;46.40;;;;;;5066972;28;20113;-82
2022/07/22 09:28:17;;;;;;;15.18;11.48;;;41.50;46.10;;;;;;5076405;28;20136;-81
2022/07/22 09:31:03;;;;;;;13.50;11.70;;;41.40;45.30;;;;;;5074509;28;20048;-82
2022/07/22 09:33:41;;;;;;;16.13;12.35;;;41.40;47.10;;;;;;5079250;28;20044;-80
2022/07/22 09:36:29;;;;;;;15.77;11.63;;;41.50;45.20;;;;;;5074261;28;20043;-81
2022/07/22 09:38:58;;;;;;;12.55;11.32;;;41.50;47.70;;;;;;5074635;28;20059;-81
2022/07/22 09:41:26;;;;;;;13.55;12.25;;;41.60;46.60;;;;;;5092372;28;20052;-80
2022/07/22 09:43:53;;;;;;;13.63;12.20;;;41.90;47.50;;;;;;5072417;28;20078;-81
2022/07/22 09:46:36;;;;;;;13.50;12.32;;;42.10;46.40;;;;;;5073008;28;20048;-82
2022/07/22 09:49:33;;;;;;;16.90;11.38;;;42.20;46.90;;;;;;5064750;28;20056;-83
2022/07/22 09:52:21;;;;;;;15.02;11.77;;;42.30;46.30;;;;;;5091115;28;20048;-81
2022/07/22 09:55:16;;;;;;;17.27;12.10;;;42.20;45.30;;;;;;5059954;28;20109;-81
2022/07/22 09:57:48;;;;;;;13.93;12.25;;;42.20;44.90;;;;;;5073436;28;20183;-81
2022/07/22 10:00:17;;;;;;;14.25;12.27;;;42.30;44.50;;;;;;5060232;28;20048;-81
2022/07/22 10:02:53;;;;;;;12.93;11.73;;;42.20;46.00;;;;;;5060640;28;20474;-81
2022/07/22 10:05:23;;;;;;;13.43;12.02;;;42.20;44.50;;;;;;5073870;28;20146;-79
2022/07/22 10:07:53;;;;;;;12.50;11.50;;;42.10;44.30;;;;;;5058814;28;20353;-82
2022/07/22 10:10:23;;;;;;;14.88;11.82;;;42.00;46.30;;;;;;5053948;28;20044;-82
2022/07/22 10:12:52;;;;;;;14.30;12.18;;;42.10;45.50;;;;;;5071164;28;20067;-81
2022/07/22 10:15:21;;;;;;;13.43;11.77;;;42.30;46.20;;;;;;5077701;28;20048;-82
2022/07/22 10:17:54;;;;;;;14.50;12.20;;;42.40;45.30;;;;;;5057628;28;20143;-83
2022/07/22 10:20:24;;;;;;;17.05;12.27;;;42.50;44.90;;;;;;5071473;28;20084;-82
2022/07/22 10:22:56;;;;;;;16.85;12.48;;;42.70;43.90;;;;;;5081050;28;20433;-82
2022/07/22 10:25:25;;;;;;;18.92;13.25;;;42.80;44.10;;;;;;5054498;28;20378;-81
2022/07/22 10:27:56;;;;;;;14.55;12.65;;;42.90;44.30;;;;;;5075920;28;20086;-81
2022/07/22 10:30:26;;;;;;;13.50;12.13;;;42.80;43.10;;;;;;5082236;28;20044;-81
2022/07/22 10:33:07;;;;;;;12.40;11.30;;;42.90;45.70;;;;;;5066464;28;20053;-81
2022/07/22 10:35:37;;;;;;;13.88;12.38;;;42.90;44.60;;;;;;5054515;28;20048;-81
2022/07/22 10:38:09;;;;;;;14.88;12.05;;;43.10;43.70;;;;;;5069071;28;20047;-80
2022/07/22 10:40:50;;;;;;;16.85;12.38;;;43.30;41.90;;;;;;5068389;28;20055;-82
2022/07/22 10:43:19;;;;;;;13.02;11.70;;;43.70;42.20;;;;;;5084991;28;20048;-80
2022/07/22 10:45:49;;;;;;;13.07;11.98;;;43.60;41.10;;;;;;5049609;28;20602;-81
2022/07/22 10:48:23;;;;;;;12.80;11.35;;;43.90;41.60;;;;;;5068505;28;20593;-84
2022/07/22 10:51:08;;;;;;;12.73;11.40;;;44.10;39.90;;;;;;5067780;28;20083;-81
2022/07/22 10:53:46;;;;;;;12.35;11.32;;;44.00;39.60;;;;;;5052025;28;20044;-81
2022/07/22 10:56:16;;;;;;;14.02;11.23;;;43.50;40.10;;;;;;5076460;28;20140;-81
2022/07/22 10:58:56;;;;;;;16.50;12.15;;;42.60;40.80;;;;;;5075543;28;20046;-81
2022/07/22 11:01:30;;;;;;;15.40;11.77;;;41.10;42.50;;;;;;5069455;28;20048;-80
2022/07/22 11:04:09;;;;;;;14.48;11.18;;;40.80;42.80;;;;;;5088570;28;20095;-81
2022/07/22 11:06:36;;;;;;;12.55;11.38;;;41.50;43.80;;;;;;5057067;28;20047;-81
2022/07/22 11:09:07;;;;;;;12.05;10.95;;;42.10;43.70;;;;;;5078127;28;20048;-80
2022/07/22 11:11:42;;;;;;;15.60;12.10;;;42.70;42.70;;;;;;5086952;28;20044;-81
2022/07/22 11:14:15;;;;;;;13.10;12.00;;;43.20;42.50;;;;;;5086334;28;20067;-81
2022/07/22 11:16:43;;;;;;;12.98;11.77;;;43.50;42.60;;;;;;5062808;28;20055;-81
2022/07/22 11:19:11;;;;;;;13.07;11.70;;;43.90;42.10;;;;;;5075494;28;20132;-80
2022/07/22 11:21:39;;;;;;;13.15;11.93;;;44.10;41.40;;;;;;5082300;28;20512;-80
2022/07/22 11:24:10;;;;;;;14.45;13.07;;;44.30;39.70;;;;;;5074342;28;20106;-81
2022/07/22 11:26:45;;;;;;;13.63;11.80;;;44.30;39.40;;;;;;5074924;28;20507;-82
2022/07/22 11:29:18;;;;;;;14.70;13.23;;;43.80;40.30;;;;;;5076008;28;20483;-83
2022/07/22 11:31:46;;;;;;;15.23;13.50;;;43.70;41.30;;;;;;5085357;28;20535;-83
2022/07/22 11:34:20;;;;;;;13.48;12.23;;;43.40;40.60;;;;;;5077541;28;20094;-81
2022/07/22 11:36:48;;;;;;;16.50;12.30;;;43.20;41.00;;;;;;5085733;28;20131;-82
2022/07/22 11:39:20;;;;;;;13.02;11.75;;;43.30;42.00;;;;;;5089208;28;20581;-82
2022/07/22 11:41:48;;;;;;;13.68;12.48;;;43.50;42.20;;;;;;5091711;28;20538;-83
2022/07/22 11:44:19;;;;;;;16.25;12.70;;;43.50;41.80;;;;;;5076935;28;20072;-82
2022/07/22 11:46:47;;;;;;;;;;;43.50;42.80;;;;;;5082122;28;20048;-85
2022/07/22 11:49:16;;;;;;;16.40;13.15;;;43.60;42.10;;;;;;5057115;28;19959;-82
2022/07/22 11:51:44;;;;;;;19.73;12.30;;;43.90;41.90;;;;;;5068065;28;20045;-82
2022/07/22 11:54:11;;;;;;;17.27;12.77;;;44.10;41.30;;;;;;5072638;28;20032;-83
2022/07/22 11:56:40;;;;;;;15.80;13.00;;;44.40;41.20;;;;;;5034717;28;20071;-82
2022/07/22 11:59:09;;;;;;;14.65;12.63;;;44.50;41.80;;;;;;5069565;28;20153;-82
2022/07/22 12:01:38;;;;;;;14.25;12.65;;;44.80;41.30;;;;;;5049763;28;20486;-82
2022/07/22 12:04:08;;;;;;;22.77;15.02;;;44.70;39.20;;;;;;5071585;28;20052;-84
2022/07/22 12:06:38;;;;;;;15.40;13.90;;;43.90;39.40;;;;;;5069965;28;20546;-81
2022/07/22 12:09:08;;;;;;;12.82;11.45;;;43.30;40.30;;;;;;5087699;28;20294;-82
2022/07/22 12:11:38;;;;;;;15.93;13.17;;;43.20;40.50;;;;;;5069459;28;20463;-82
2022/07/22 12:14:08;;;;;;;15.23;11.98;;;43.40;41.40;;;;;;5081385;28;20147;-82
2022/07/22 12:16:37;;;;;;;13.95;12.55;;;43.80;40.00;;;;;;5072811;28;20048;-83
2022/07/22 12:19:08;;;;;;;12.68;11.38;;;44.20;40.50;;;;;;5061773;28;20135;-83
2022/07/22 12:21:38;;;;;;;14.00;11.70;;;44.40;39.90;;;;;;5088527;28;20132;-82
2022/07/22 12:24:09;;;;;;;16.48;10.95;;;44.30;40.80;;;;;;5077346;28;20060;-82
2022/07/22 12:26:45;;;;;;;13.25;11.88;;;44.40;40.40;;;;;;5069438;28;20457;-83
2022/07/22 12:29:22;;;;;;;12.30;10.68;;;44.60;38.90;;;;;;5070395;28;20052;-83
2022/07/22 12:31:52;;;;;;;16.45;10.82;;;44.20;38.80;;;;;;5069566;28;20608;-84
2022/07/22 12:34:31;;;;;;;12.10;11.07;;;44.10;39.10;;;;;;5071490;28;20053;-82
2022/07/22 12:36:59;;;;;;;12.07;10.88;;;43.90;39.10;;;;;;5072179;28;20135;-85
2022/07/22 12:39:27;;;;;;;12.60;11.27;;;43.70;39.30;;;;;;5053913;28;20044;-85
2022/07/22 12:41:55;;;;;;;11.15;10.25;;;43.70;39.20;;;;;;5050102;28;20060;-83
2022/07/22 12:44:27;;;;;;;12.30;10.32;;;43.70;39.50;;;;;;5071121;28;20110;-83
2022/07/22 12:46:56;;;;;;;11.52;10.43;;;43.80;39.00;;;;;;5071747;28;20050;-85
2022/07/22 12:49:26;;;;;;;11.38;10.25;;;43.90;39.10;;;;;;5070371;28;20495;-82